createdAt,value
2019-02-10T00:00:54.854Z,1004.65
2019-02-10T00:01:54.794Z,1004.61
2019-02-10T00:02:54.799Z,1004.63
2019-02-10T00:03:54.788Z,1004.65
2019-02-10T00:04:54.778Z,1004.65
2019-02-10T00:05:54.792Z,1004.68
2019-02-10T00:06:54.762Z,1004.60
2019-02-10T00:07:54.800Z,1004.61
2019-02-10T00:08:54.727Z,1004.61
2019-02-10T00:09:54.754Z,1004.66
2019-02-10T00:10:54.749Z,1004.73
2019-02-10T00:11:54.709Z,1004.67
2019-02-10T00:12:54.696Z,1004.69
2019-02-10T00:13:54.725Z,1004.71
2019-02-10T00:14:54.666Z,1004.70
2019-02-10T00:15:54.718Z,1004.70
2019-02-10T00:16:54.648Z,1004.74
2019-02-10T00:17:54.698Z,1004.77
2019-02-10T00:18:54.662Z,1004.78
2019-02-10T00:19:54.606Z,1004.69
2019-02-10T00:20:54.619Z,1004.71
2019-02-10T00:21:54.622Z,1004.75
2019-02-10T00:22:54.576Z,1004.74
2019-02-10T00:23:54.578Z,1004.75
2019-02-10T00:24:54.548Z,1004.73
2019-02-10T00:25:54.539Z,1004.77
2019-02-10T00:26:54.560Z,1004.78
2019-02-10T00:27:54.520Z,1004.75
2019-02-10T00:28:54.530Z,1004.83
2019-02-10T00:29:54.492Z,1004.82
2019-02-10T00:30:54.481Z,1004.82
2019-02-10T00:32:02.179Z,1004.84
2019-02-10T00:32:54.482Z,1004.86
2019-02-10T00:33:54.451Z,1004.85
2019-02-10T00:34:54.514Z,1004.82
2019-02-10T00:35:54.488Z,1004.80
2019-02-10T00:36:58.323Z,1004.81
2019-02-10T00:37:54.519Z,1004.78
2019-02-10T00:38:54.478Z,1004.77
2019-02-10T00:39:54.521Z,1004.75
2019-02-10T00:41:55.496Z,1004.77
2019-02-10T00:42:54.407Z,1004.78
2019-02-10T00:44:55.440Z,1004.81
2019-02-10T00:45:54.382Z,1004.81
2019-02-10T00:46:58.595Z,1004.81
2019-02-10T00:47:55.068Z,1004.79
2019-02-10T00:48:54.392Z,1004.77
2019-02-10T00:49:54.400Z,1004.75
2019-02-10T00:50:54.368Z,1004.73
2019-02-10T00:51:54.440Z,1004.79
2019-02-10T00:52:58.491Z,1004.75
2019-02-10T00:53:54.296Z,1004.71
2019-02-10T00:54:54.300Z,1004.79
2019-02-10T00:55:54.303Z,1004.71
2019-02-10T00:56:54.322Z,1004.74
2019-02-10T00:57:54.407Z,1004.79
2019-02-10T00:59:55.437Z,1004.69
2019-02-10T01:01:15.162Z,1004.68
2019-02-10T01:01:54.160Z,1004.69
2019-02-10T01:02:54.182Z,1004.72
2019-02-10T01:03:54.155Z,1004.66
2019-02-10T01:04:54.140Z,1004.65
2019-02-10T01:05:54.124Z,1004.70
2019-02-10T01:06:54.106Z,1004.62
2019-02-10T01:07:54.125Z,1004.62
2019-02-10T01:08:54.082Z,1004.59
2019-02-10T01:09:54.091Z,1004.54
2019-02-10T01:10:54.084Z,1004.58
2019-02-10T01:11:54.110Z,1004.59
2019-02-10T01:12:54.041Z,1004.53
2019-02-10T01:13:54.089Z,1004.53
2019-02-10T01:14:54.019Z,1004.55
2019-02-10T01:16:55.228Z,1004.51
2019-02-10T01:19:24.578Z,1004.55
2019-02-10T01:20:24.620Z,1004.49
2019-02-10T01:22:13.105Z,1004.50
2019-02-10T01:23:13.103Z,1004.46
2019-02-10T01:24:13.058Z,1004.50
2019-02-10T01:25:13.046Z,1004.54
2019-02-10T01:26:13.042Z,1004.51
2019-02-10T01:28:14.130Z,1004.52
2019-02-10T01:29:13.087Z,1004.51
2019-02-10T01:30:13.006Z,1004.47
2019-02-10T01:32:15.031Z,1004.47
2019-02-10T01:33:13.052Z,1004.54
2019-02-10T01:34:13.017Z,1004.51
2019-02-10T01:35:13.024Z,1004.43
2019-02-10T01:36:13.007Z,1004.42
2019-02-10T01:37:13.012Z,1004.48
2019-02-10T01:38:13.096Z,1004.49
2019-02-10T01:39:12.906Z,1004.40
2019-02-10T01:40:12.894Z,1004.42
2019-02-10T01:41:12.895Z,1004.36
2019-02-10T01:42:12.873Z,1004.40
2019-02-10T01:43:12.888Z,1004.37
2019-02-10T01:44:12.846Z,1004.35
2019-02-10T01:45:12.836Z,1004.39
2019-02-10T01:46:12.844Z,1004.40
2019-02-10T01:47:12.832Z,1004.35
2019-02-10T01:48:12.847Z,1004.36
2019-02-10T01:49:12.808Z,1004.43
2019-02-10T01:50:12.781Z,1004.38
2019-02-10T01:51:12.776Z,1004.38
2019-02-10T01:52:12.771Z,1004.30
2019-02-10T01:53:12.748Z,1004.21
2019-02-10T01:54:12.808Z,1004.31
2019-02-10T01:55:12.751Z,1004.33
2019-02-10T01:56:12.714Z,1004.29
2019-02-10T01:57:12.718Z,1004.30
2019-02-10T01:58:12.755Z,1004.32
2019-02-10T01:59:12.740Z,1004.24
2019-02-10T02:00:12.696Z,1004.25
2019-02-10T02:01:12.674Z,1004.21
2019-02-10T02:02:12.653Z,1004.15
2019-02-10T02:03:12.651Z,1004.23
2019-02-10T02:04:12.654Z,1004.19
2019-02-10T02:05:12.640Z,1004.20
2019-02-10T02:06:12.622Z,1004.16
2019-02-10T02:07:12.645Z,1004.18
2019-02-10T02:08:12.598Z,1004.21
2019-02-10T02:09:12.602Z,1004.22
2019-02-10T02:10:12.588Z,1004.14
2019-02-10T02:11:12.566Z,1004.17
2019-02-10T02:12:12.598Z,1004.09
2019-02-10T02:14:13.605Z,1004.16
2019-02-10T02:15:12.518Z,1004.16
2019-02-10T02:16:12.496Z,1004.10
2019-02-10T02:17:12.544Z,1004.13
2019-02-10T02:18:12.516Z,1004.13
2019-02-10T02:19:12.733Z,1004.12
2019-02-10T02:20:12.468Z,1004.10
2019-02-10T02:21:12.468Z,1004.07
2019-02-10T02:22:12.425Z,1004.14
2019-02-10T02:23:12.422Z,1004.17
2019-02-10T02:24:12.440Z,1004.13
2019-02-10T02:25:12.425Z,1004.12
2019-02-10T02:26:12.454Z,1004.13
2019-02-10T02:27:12.464Z,1004.18
2019-02-10T02:28:12.430Z,1004.13
2019-02-10T02:29:12.470Z,1004.10
2019-02-10T02:30:12.427Z,1004.10
2019-02-10T02:31:15.412Z,1004.07
2019-02-10T02:32:12.410Z,1004.11
2019-02-10T02:33:12.342Z,1004.12
2019-02-10T02:34:12.310Z,1004.06
2019-02-10T02:35:12.400Z,1004.04
2019-02-10T02:36:12.293Z,1004.01
2019-02-10T02:37:12.338Z,1004.04
2019-02-10T02:38:12.272Z,1003.95
2019-02-10T02:39:12.308Z,1004.00
2019-02-10T02:40:12.365Z,1003.94
2019-02-10T02:41:12.305Z,1003.93
2019-02-10T02:42:12.283Z,1003.99
2019-02-10T02:43:12.256Z,1003.94
2019-02-10T02:44:12.248Z,1003.93
2019-02-10T02:45:12.221Z,1003.94
2019-02-10T02:46:12.195Z,1003.85
2019-02-10T02:47:12.169Z,1003.89
2019-02-10T02:48:12.166Z,1003.82
2019-02-10T02:49:12.213Z,1003.82
2019-02-10T02:50:12.220Z,1003.79
2019-02-10T02:51:12.153Z,1003.77
2019-02-10T02:52:12.160Z,1003.79
2019-02-10T02:53:12.094Z,1003.78
2019-02-10T02:54:12.093Z,1003.77
2019-02-10T02:55:12.138Z,1003.71
2019-02-10T02:56:12.066Z,1003.68
2019-02-10T02:57:12.063Z,1003.71
2019-02-10T02:58:12.076Z,1003.65
2019-02-10T02:59:12.041Z,1003.68
2019-02-10T03:00:12.062Z,1003.65
2019-02-10T03:01:12.031Z,1003.65
2019-02-10T03:02:12.094Z,1003.65
2019-02-10T03:03:12.034Z,1003.62
2019-02-10T03:04:11.998Z,1003.63
2019-02-10T03:05:12.004Z,1003.54
2019-02-10T03:06:11.970Z,1003.55
2019-02-10T03:07:17.700Z,1003.52
2019-02-10T03:08:12.948Z,1003.53
2019-02-10T03:09:11.944Z,1003.56
2019-02-10T03:10:11.960Z,1003.48
2019-02-10T03:11:11.926Z,1003.51
2019-02-10T03:12:11.898Z,1003.51
2019-02-10T03:13:11.876Z,1003.51
2019-02-10T03:14:11.883Z,1003.51
2019-02-10T03:15:11.898Z,1003.50
2019-02-10T03:16:11.889Z,1003.46
2019-02-10T03:17:11.891Z,1003.52
2019-02-10T03:18:13.948Z,1003.49
2019-02-10T03:19:11.982Z,1003.49
2019-02-10T03:20:16.007Z,1003.47
2019-02-10T03:21:11.846Z,1003.43
2019-02-10T03:22:11.842Z,1003.46
2019-02-10T03:23:11.791Z,1003.39
2019-02-10T03:24:11.786Z,1003.39
2019-02-10T03:25:11.757Z,1003.41
2019-02-10T03:26:11.786Z,1003.42
2019-02-10T03:27:11.768Z,1003.41
2019-02-10T03:28:11.775Z,1003.39
2019-02-10T03:29:11.790Z,1003.40
2019-02-10T03:30:11.722Z,1003.39
2019-02-10T03:31:11.717Z,1003.37
2019-02-10T03:32:11.690Z,1003.33
2019-02-10T03:33:11.672Z,1003.35
2019-02-10T03:34:11.665Z,1003.34
2019-02-10T03:35:11.642Z,1003.30
2019-02-10T03:36:11.670Z,1003.31
2019-02-10T03:37:11.641Z,1003.30
2019-02-10T03:38:11.690Z,1003.29
2019-02-10T03:39:11.622Z,1003.29
2019-02-10T03:40:11.592Z,1003.29
2019-02-10T03:41:11.602Z,1003.24
2019-02-10T03:42:11.575Z,1003.15
2019-02-10T03:43:11.581Z,1003.18
2019-02-10T03:44:11.565Z,1003.22
2019-02-10T03:45:11.550Z,1003.18
2019-02-10T03:46:11.539Z,1003.20
2019-02-10T03:47:11.547Z,1003.20
2019-02-10T03:48:11.527Z,1003.20
2019-02-10T03:49:11.512Z,1003.18
2019-02-10T03:50:11.557Z,1003.19
2019-02-10T03:51:11.513Z,1003.19
2019-02-10T03:52:11.479Z,1003.19
2019-02-10T03:53:11.446Z,1003.19
2019-02-10T03:54:11.456Z,1003.16
2019-02-10T03:55:11.457Z,1003.12
2019-02-10T03:56:11.547Z,1003.15
2019-02-10T03:57:11.425Z,1003.16
2019-02-10T03:58:11.467Z,1003.11
2019-02-10T03:59:11.388Z,1003.13
2019-02-10T04:00:11.387Z,1003.12
2019-02-10T04:01:11.406Z,1003.14
2019-02-10T04:02:11.395Z,1003.09
2019-02-10T04:03:11.351Z,1003.05
2019-02-10T04:04:11.335Z,1003.09
2019-02-10T04:05:11.338Z,1003.02
2019-02-10T04:06:11.340Z,1003.00
2019-02-10T04:07:11.343Z,1003.01
2019-02-10T04:08:11.306Z,1003.02
2019-02-10T04:09:11.382Z,1003.00
2019-02-10T04:10:11.280Z,1002.97
2019-02-10T04:11:11.277Z,1002.94
2019-02-10T04:12:11.299Z,1002.92
2019-02-10T04:13:11.258Z,1002.89
2019-02-10T04:14:11.239Z,1002.88
2019-02-10T04:15:11.259Z,1002.91
2019-02-10T04:16:11.211Z,1002.89
2019-02-10T04:17:11.230Z,1002.85
2019-02-10T04:18:11.198Z,1002.87
2019-02-10T04:19:11.270Z,1002.82
2019-02-10T04:20:11.166Z,1002.82
2019-02-10T04:21:11.187Z,1002.76
2019-02-10T04:22:11.333Z,1002.81
2019-02-10T04:23:13.140Z,1002.77
2019-02-10T04:24:11.133Z,1002.73
2019-02-10T04:25:11.115Z,1002.81
2019-02-10T04:26:11.106Z,1002.77
2019-02-10T04:27:11.120Z,1002.74
2019-02-10T04:28:11.082Z,1002.74
2019-02-10T04:29:11.086Z,1002.70
2019-02-10T04:30:11.057Z,1002.71
2019-02-10T04:31:11.065Z,1002.78
2019-02-10T04:32:11.069Z,1002.72
2019-02-10T04:33:11.041Z,1002.74
2019-02-10T04:34:11.021Z,1002.73
2019-02-10T04:35:11.017Z,1002.71
2019-02-10T04:36:11.050Z,1002.68
2019-02-10T04:37:12.732Z,1002.71
2019-02-10T04:38:11.021Z,1002.72
2019-02-10T04:39:11.010Z,1002.72
2019-02-10T04:40:10.978Z,1002.70
2019-02-10T04:41:10.947Z,1002.69
2019-02-10T04:42:10.966Z,1002.66
2019-02-10T04:43:10.932Z,1002.63
2019-02-10T04:44:10.910Z,1002.61
2019-02-10T04:45:10.897Z,1002.52
2019-02-10T04:46:10.897Z,1002.52
2019-02-10T04:47:10.906Z,1002.53
2019-02-10T04:48:10.909Z,1002.54
2019-02-10T04:49:10.913Z,1002.51
2019-02-10T04:50:19.171Z,1002.47
2019-02-10T04:51:10.827Z,1002.49
2019-02-10T04:52:10.861Z,1002.42
2019-02-10T04:53:10.809Z,1002.51
2019-02-10T04:54:10.805Z,1002.46
2019-02-10T04:55:10.809Z,1002.44
2019-02-10T04:56:10.784Z,1002.49
2019-02-10T04:57:10.817Z,1002.45
2019-02-10T04:58:10.903Z,1002.45
2019-02-10T04:59:21.755Z,1002.41
2019-02-10T05:01:20.315Z,1002.38
2019-02-10T05:02:20.294Z,1002.34
2019-02-10T05:03:20.305Z,1002.35
2019-02-10T05:04:20.296Z,1002.33
2019-02-10T05:05:20.270Z,1002.34
2019-02-10T05:06:20.249Z,1002.33
2019-02-10T05:07:20.263Z,1002.29
2019-02-10T05:08:20.287Z,1002.27
2019-02-10T05:09:20.219Z,1002.28
2019-02-10T05:10:21.740Z,1002.26
2019-02-10T05:11:20.310Z,1002.17
2019-02-10T05:12:20.191Z,1002.13
2019-02-10T05:13:20.196Z,1002.16
2019-02-10T05:14:20.172Z,1002.17
2019-02-10T05:15:20.161Z,1002.12
2019-02-10T05:16:20.151Z,1002.15
2019-02-10T05:17:20.149Z,1002.19
2019-02-10T05:18:20.273Z,1002.18
2019-02-10T05:19:20.127Z,1002.14
2019-02-10T05:20:20.109Z,1002.15
2019-02-10T05:21:20.098Z,1002.17
2019-02-10T05:22:20.086Z,1002.13
2019-02-10T05:23:20.113Z,1002.07
2019-02-10T05:24:20.067Z,1002.02
2019-02-10T05:25:20.074Z,1001.94
2019-02-10T05:26:20.052Z,1001.99
2019-02-10T05:27:20.039Z,1002.03
2019-02-10T05:28:20.093Z,1001.95
2019-02-10T05:29:20.025Z,1001.96
2019-02-10T05:30:20.017Z,1001.93
2019-02-10T05:31:20.008Z,1001.90
2019-02-10T05:32:19.994Z,1001.95
2019-02-10T05:33:19.989Z,1001.91
2019-02-10T05:34:19.956Z,1001.89
2019-02-10T05:35:19.948Z,1001.89
2019-02-10T05:36:19.941Z,1001.85
2019-02-10T05:37:19.927Z,1001.81
2019-02-10T05:38:19.969Z,1001.84
2019-02-10T05:39:19.909Z,1001.81
2019-02-10T05:40:19.918Z,1001.68
2019-02-10T05:41:19.886Z,1001.70
2019-02-10T05:42:19.928Z,1001.69
2019-02-10T05:43:20.052Z,1001.69
2019-02-10T05:44:19.911Z,1001.66
2019-02-10T05:45:19.914Z,1001.64
2019-02-10T05:46:19.877Z,1001.66
2019-02-10T05:47:19.863Z,1001.65
2019-02-10T05:48:21.903Z,1001.61
2019-02-10T05:49:19.802Z,1001.61
2019-02-10T05:50:19.793Z,1001.59
2019-02-10T05:51:19.793Z,1001.58
2019-02-10T05:52:19.778Z,1001.48
2019-02-10T05:53:19.821Z,1001.49
2019-02-10T05:54:19.828Z,1001.45
2019-02-10T05:55:21.798Z,1001.39
2019-02-10T05:56:19.789Z,1001.34
2019-02-10T05:57:19.800Z,1001.35
2019-02-10T05:58:19.758Z,1001.33
2019-02-10T05:59:19.731Z,1001.29
2019-02-10T06:00:19.703Z,1001.27
2019-02-10T06:01:19.689Z,1001.27
2019-02-10T06:02:19.661Z,1001.24
2019-02-10T06:03:19.660Z,1001.21
2019-02-10T06:04:19.780Z,1001.19
2019-02-10T06:06:20.713Z,1001.16
2019-02-10T06:07:19.614Z,1001.15
2019-02-10T06:08:19.599Z,1001.14
2019-02-10T06:09:19.620Z,1001.09
2019-02-10T06:10:19.624Z,1001.14
2019-02-10T06:12:20.634Z,1001.08
2019-02-10T06:13:19.643Z,1001.06
2019-02-10T06:14:19.731Z,1001.02
2019-02-10T06:15:19.617Z,1000.97
2019-02-10T06:16:19.590Z,1000.98
2019-02-10T06:17:40.550Z,1000.98
2019-02-10T06:18:19.501Z,1000.98
2019-02-10T06:19:19.512Z,1001.00
2019-02-10T06:20:19.492Z,1000.97
2019-02-10T06:21:19.477Z,1000.96
2019-02-10T06:22:19.473Z,1000.91
2019-02-10T06:23:19.515Z,1000.94
2019-02-10T06:24:19.441Z,1000.93
2019-02-10T06:25:19.472Z,1000.91
2019-02-10T06:26:19.422Z,1000.90
2019-02-10T06:27:19.435Z,1000.87
2019-02-10T06:28:19.464Z,1000.93
2019-02-10T06:29:19.433Z,1000.91
2019-02-10T06:30:19.392Z,1000.87
2019-02-10T06:31:19.361Z,1000.87
2019-02-10T06:32:19.361Z,1000.87
2019-02-10T06:33:19.359Z,1000.81
2019-02-10T06:34:19.339Z,1000.78
2019-02-10T06:35:19.344Z,1000.78
2019-02-10T06:36:19.304Z,1000.72
2019-02-10T06:37:19.418Z,1000.71
2019-02-10T06:38:22.455Z,1000.67
2019-02-10T06:39:19.345Z,1000.65
2019-02-10T06:40:19.423Z,1000.69
2019-02-10T06:41:19.317Z,1000.68
2019-02-10T06:42:19.268Z,1000.71
2019-02-10T06:43:19.314Z,1000.72
2019-02-10T06:44:19.275Z,1000.72
2019-02-10T06:45:19.351Z,1000.70
2019-02-10T06:46:19.258Z,1000.61
2019-02-10T06:47:19.292Z,1000.65
2019-02-10T06:48:19.185Z,1000.59
2019-02-10T06:49:19.248Z,1000.59
2019-02-10T06:50:19.288Z,1000.62
2019-02-10T06:51:19.196Z,1000.61
2019-02-10T06:52:19.202Z,1000.58
2019-02-10T06:53:19.207Z,1000.57
2019-02-10T06:54:19.119Z,1000.57
2019-02-10T06:55:19.292Z,1000.63
2019-02-10T06:56:19.152Z,1000.58
2019-02-10T06:57:19.135Z,1000.55
2019-02-10T06:58:19.160Z,1000.55
2019-02-10T06:59:19.138Z,1000.48
2019-02-10T07:00:19.093Z,1000.49
2019-02-10T07:01:19.045Z,1000.50
2019-02-10T07:02:19.038Z,1000.50
2019-02-10T07:03:19.100Z,1000.42
2019-02-10T07:05:20.132Z,1000.40
2019-02-10T07:06:18.984Z,1000.37
2019-02-10T07:07:18.976Z,1000.32
2019-02-10T07:09:20.028Z,1000.33
2019-02-10T07:10:19.030Z,1000.29
2019-02-10T07:11:18.957Z,1000.30
2019-02-10T07:12:18.918Z,1000.21
2019-02-10T07:13:18.910Z,1000.22
2019-02-10T07:14:18.912Z,1000.21
2019-02-10T07:15:18.884Z,1000.20
2019-02-10T07:16:18.892Z,1000.20
2019-02-10T07:17:18.874Z,1000.14
2019-02-10T07:18:18.896Z,1000.16
2019-02-10T07:19:18.896Z,1000.14
2019-02-10T07:20:18.886Z,1000.14
2019-02-10T07:21:19.005Z,1000.13
2019-02-10T07:22:18.882Z,1000.13
2019-02-10T07:23:18.876Z,1000.13
2019-02-10T07:24:18.840Z,1000.06
2019-02-10T07:25:18.788Z,1000.04
2019-02-10T07:26:18.795Z,1000.07
2019-02-10T07:27:18.754Z,1000.02
2019-02-10T07:28:18.750Z,999.96
2019-02-10T07:29:18.730Z,999.96
2019-02-10T07:30:18.734Z,999.96
2019-02-10T07:31:18.738Z,999.94
2019-02-10T07:32:18.714Z,999.85
2019-02-10T07:33:18.692Z,999.91
2019-02-10T07:34:18.689Z,999.86
2019-02-10T07:35:18.685Z,999.80
2019-02-10T07:36:18.745Z,999.84
2019-02-10T07:37:18.668Z,999.71
2019-02-10T07:38:18.638Z,999.76
2019-02-10T07:39:18.629Z,999.69
2019-02-10T07:40:18.620Z,999.71
2019-02-10T07:41:18.657Z,999.67
2019-02-10T07:42:18.598Z,999.70
2019-02-10T07:43:18.656Z,999.65
2019-02-10T07:44:18.624Z,999.57
2019-02-10T07:45:18.612Z,999.59
2019-02-10T07:46:18.684Z,999.56
2019-02-10T07:47:18.596Z,999.57
2019-02-10T07:48:18.637Z,999.57
2019-02-10T07:49:18.548Z,999.52
2019-02-10T07:50:18.512Z,999.43
2019-02-10T07:51:18.550Z,999.44
2019-02-10T07:52:18.487Z,999.43
2019-02-10T07:53:18.484Z,999.49
2019-02-10T07:54:20.570Z,999.45
2019-02-10T07:55:18.538Z,999.46
2019-02-10T07:56:18.448Z,999.48
2019-02-10T07:57:18.454Z,999.45
2019-02-10T07:58:18.431Z,999.39
2019-02-10T07:59:18.418Z,999.39
2019-02-10T08:00:18.428Z,999.40
2019-02-10T08:01:18.420Z,999.32
2019-02-10T08:02:18.426Z,999.31
2019-02-10T08:03:18.372Z,999.34
2019-02-10T08:04:18.374Z,999.30
2019-02-10T08:05:18.352Z,999.25
2019-02-10T08:06:18.357Z,999.20
2019-02-10T08:07:18.464Z,999.22
2019-02-10T08:08:18.381Z,999.13
2019-02-10T08:09:18.369Z,999.17
2019-02-10T08:10:20.356Z,999.17
2019-02-10T08:11:18.338Z,999.14
2019-02-10T08:12:18.415Z,999.14
2019-02-10T08:13:19.268Z,999.10
2019-02-10T08:14:18.283Z,999.17
2019-02-10T08:15:18.244Z,999.14
2019-02-10T08:16:18.238Z,999.13
2019-02-10T08:17:18.247Z,999.12
2019-02-10T08:18:18.235Z,999.17
2019-02-10T08:19:18.204Z,999.09
2019-02-10T08:20:18.244Z,999.01
2019-02-10T08:21:20.244Z,999.04
2019-02-10T08:22:18.274Z,998.94
2019-02-10T08:23:18.163Z,998.96
2019-02-10T08:24:18.176Z,998.95
2019-02-10T08:25:18.141Z,998.84
2019-02-10T08:26:18.125Z,998.85
2019-02-10T08:27:18.153Z,998.81
2019-02-10T08:28:18.132Z,998.82
2019-02-10T08:29:18.109Z,998.82
2019-02-10T08:30:18.096Z,998.80
2019-02-10T08:31:18.139Z,998.78
2019-02-10T08:32:18.077Z,998.74
2019-02-10T08:33:20.768Z,998.77
2019-02-10T08:34:18.044Z,998.73
2019-02-10T08:35:18.053Z,998.67
2019-02-10T08:36:18.028Z,998.60
2019-02-10T08:37:18.013Z,998.56
2019-02-10T08:38:18.032Z,998.57
2019-02-10T08:39:18.002Z,998.48
2019-02-10T08:40:17.985Z,998.49
2019-02-10T08:41:17.966Z,998.41
2019-02-10T08:42:26.338Z,998.37
2019-02-10T08:43:17.950Z,998.34
2019-02-10T08:44:17.947Z,998.25
2019-02-10T08:45:17.941Z,998.22
2019-02-10T08:46:17.925Z,998.16
2019-02-10T08:47:17.924Z,998.14
2019-02-10T08:48:17.916Z,998.07
2019-02-10T08:49:17.886Z,998.07
2019-02-10T08:50:19.890Z,997.93
2019-02-10T08:51:17.860Z,997.99
2019-02-10T08:52:17.864Z,997.93
2019-02-10T08:53:17.866Z,997.91
2019-02-10T08:54:17.863Z,997.89
2019-02-10T08:55:17.817Z,997.84
2019-02-10T08:56:17.813Z,997.74
2019-02-10T08:57:17.802Z,997.69
2019-02-10T08:58:17.844Z,997.63
2019-02-10T08:59:17.800Z,997.60
2019-02-10T09:00:17.774Z,997.47
2019-02-10T09:01:17.754Z,997.41
2019-02-10T09:02:17.743Z,997.33
2019-02-10T09:03:19.566Z,997.35
2019-02-10T09:04:17.741Z,997.34
2019-02-10T09:05:17.766Z,997.36
2019-02-10T09:06:17.701Z,997.37
2019-02-10T09:07:17.698Z,997.38
2019-02-10T09:08:17.779Z,997.33
2019-02-10T09:09:17.674Z,997.26
2019-02-10T09:10:17.684Z,997.26
2019-02-10T09:11:17.657Z,997.19
2019-02-10T09:12:17.648Z,997.18
2019-02-10T09:13:17.709Z,997.20
2019-02-10T09:14:17.625Z,997.15
2019-02-10T09:15:17.622Z,997.10
2019-02-10T09:16:17.628Z,996.97
2019-02-10T09:17:17.597Z,996.95
2019-02-10T09:18:17.598Z,996.98
2019-02-10T09:19:17.588Z,996.87
2019-02-10T09:20:17.565Z,996.91
2019-02-10T09:21:17.594Z,996.83
2019-02-10T09:22:17.534Z,996.75
2019-02-10T09:23:17.589Z,996.74
2019-02-10T09:24:17.534Z,996.68
2019-02-10T09:25:17.512Z,996.70
2019-02-10T09:26:17.495Z,996.61
2019-02-10T09:27:17.509Z,996.58
2019-02-10T09:28:17.489Z,996.53
2019-02-10T09:29:17.592Z,996.52
2019-02-10T09:30:17.445Z,996.45
2019-02-10T09:31:17.439Z,996.49
2019-02-10T09:32:17.440Z,996.41
2019-02-10T09:33:17.412Z,996.42
2019-02-10T09:34:17.434Z,996.30
2019-02-10T09:35:17.402Z,996.29
2019-02-10T09:36:17.390Z,996.20
2019-02-10T09:37:17.386Z,996.16
2019-02-10T09:38:17.388Z,996.17
2019-02-10T09:39:17.393Z,996.06
2019-02-10T09:40:17.352Z,996.14
2019-02-10T09:41:17.336Z,996.08
2019-02-10T09:42:17.336Z,996.03
2019-02-10T09:43:17.312Z,995.97
2019-02-10T09:44:17.334Z,995.90
2019-02-10T09:45:17.284Z,995.85
2019-02-10T09:46:17.277Z,995.85
2019-02-10T09:47:17.265Z,995.73
2019-02-10T09:48:17.258Z,995.76
2019-02-10T09:49:17.264Z,995.66
2019-02-10T09:50:17.255Z,995.65
2019-02-10T09:51:17.225Z,995.73
2019-02-10T09:52:17.218Z,995.70
2019-02-10T09:53:17.203Z,995.67
2019-02-10T09:54:17.227Z,995.62
2019-02-10T09:55:17.202Z,995.57
2019-02-10T09:56:17.171Z,995.43
2019-02-10T09:57:17.169Z,995.35
2019-02-10T09:58:17.157Z,995.44
2019-02-10T09:59:17.173Z,995.48
2019-02-10T10:00:17.126Z,995.37
2019-02-10T10:01:17.133Z,995.38
2019-02-10T10:02:17.146Z,995.29
2019-02-10T10:03:17.137Z,995.24
2019-02-10T10:04:17.181Z,995.28
2019-02-10T10:05:17.120Z,995.26
2019-02-10T10:06:17.115Z,995.21
2019-02-10T10:07:17.077Z,995.17
2019-02-10T10:08:17.075Z,995.18
2019-02-10T10:09:19.556Z,995.12
2019-02-10T10:10:17.040Z,995.08
2019-02-10T10:11:17.031Z,995.09
2019-02-10T10:12:17.021Z,995.03
2019-02-10T10:13:17.055Z,994.93
2019-02-10T10:14:16.990Z,994.93
2019-02-10T10:15:16.999Z,994.87
2019-02-10T10:16:16.969Z,994.83
2019-02-10T10:17:16.970Z,994.71
2019-02-10T10:18:16.956Z,994.67
2019-02-10T10:19:16.949Z,994.67
2019-02-10T10:20:16.979Z,994.61
2019-02-10T10:21:16.916Z,994.54
2019-02-10T10:22:16.914Z,994.59
2019-02-10T10:23:16.894Z,994.54
2019-02-10T10:24:16.894Z,994.52
2019-02-10T10:25:16.903Z,994.46
2019-02-10T10:26:16.860Z,994.36
2019-02-10T10:27:16.854Z,994.34
2019-02-10T10:28:16.851Z,994.41
2019-02-10T10:29:16.840Z,994.30
2019-02-10T10:30:16.844Z,994.30
2019-02-10T10:31:16.842Z,994.24
2019-02-10T10:32:16.811Z,994.16
2019-02-10T10:33:16.804Z,994.07
2019-02-10T10:34:16.801Z,994.02
2019-02-10T10:35:16.795Z,993.98
2019-02-10T10:36:16.827Z,994.04
2019-02-10T10:37:16.835Z,994.07
2019-02-10T10:38:16.821Z,994.02
2019-02-10T10:39:16.823Z,993.95
2019-02-10T10:40:18.373Z,993.90
2019-02-10T10:41:16.711Z,993.82
2019-02-10T10:42:16.710Z,993.76
2019-02-10T10:43:16.675Z,993.68
2019-02-10T10:44:16.661Z,993.47
2019-02-10T10:45:16.755Z,993.55
2019-02-10T10:46:16.641Z,993.60
2019-02-10T10:47:16.663Z,993.59
2019-02-10T10:48:16.649Z,993.54
2019-02-10T10:49:16.679Z,993.48
2019-02-10T10:50:16.619Z,993.45
2019-02-10T10:51:16.612Z,993.44
2019-02-10T10:52:16.596Z,993.42
2019-02-10T10:53:16.577Z,993.38
2019-02-10T10:54:16.582Z,993.31
2019-02-10T10:55:16.601Z,993.27
2019-02-10T10:56:16.610Z,993.28
2019-02-10T10:57:16.557Z,993.26
2019-02-10T10:58:16.523Z,993.13
2019-02-10T10:59:16.521Z,993.16
2019-02-10T11:00:16.521Z,993.13
2019-02-10T11:01:16.511Z,993.10
2019-02-10T11:02:16.482Z,993.05
2019-02-10T11:03:17.304Z,993.09
2019-02-10T11:04:16.467Z,993.01
2019-02-10T11:05:16.468Z,993.03
2019-02-10T11:06:16.467Z,992.96
2019-02-10T11:07:16.439Z,992.92
2019-02-10T11:08:16.420Z,992.93
2019-02-10T11:09:16.403Z,992.95
2019-02-10T11:10:16.399Z,992.91
2019-02-10T11:11:16.403Z,992.78
2019-02-10T11:12:16.378Z,992.79
2019-02-10T11:13:16.430Z,992.80
2019-02-10T11:14:16.370Z,992.79
2019-02-10T11:15:16.336Z,992.71
2019-02-10T11:16:16.386Z,992.71
2019-02-10T11:17:16.313Z,992.68
2019-02-10T11:18:16.305Z,992.74
2019-02-10T11:19:16.298Z,992.67
2019-02-10T11:20:16.291Z,992.65
2019-02-10T11:21:16.294Z,992.63
2019-02-10T11:22:16.298Z,992.66
2019-02-10T11:23:16.258Z,992.55
2019-02-10T11:24:16.237Z,992.44
2019-02-10T11:25:16.261Z,992.36
2019-02-10T11:26:16.243Z,992.38
2019-02-10T11:27:16.219Z,992.43
2019-02-10T11:28:16.218Z,992.41
2019-02-10T11:29:16.192Z,992.53
2019-02-10T11:30:16.180Z,992.44
2019-02-10T11:31:16.171Z,992.38
2019-02-10T11:32:16.183Z,992.35
2019-02-10T11:33:16.157Z,992.21
2019-02-10T11:34:16.146Z,992.18
2019-02-10T11:35:16.132Z,992.15
2019-02-10T11:36:16.121Z,992.26
2019-02-10T11:37:16.171Z,992.30
2019-02-10T11:38:16.103Z,992.24
2019-02-10T11:39:16.101Z,992.23
2019-02-10T11:40:16.151Z,992.13
2019-02-10T11:41:16.065Z,991.93
2019-02-10T11:42:16.083Z,991.86
2019-02-10T11:43:16.112Z,991.79
2019-02-10T11:44:16.029Z,991.84
2019-02-10T11:45:16.042Z,991.93
2019-02-10T11:46:16.035Z,991.88
2019-02-10T11:47:16.037Z,991.87
2019-02-10T11:48:15.985Z,991.83
2019-02-10T11:49:15.991Z,991.90
2019-02-10T11:50:15.971Z,991.86
2019-02-10T11:51:15.975Z,991.76
2019-02-10T11:52:15.975Z,991.70
2019-02-10T11:53:15.928Z,991.66
2019-02-10T11:54:15.921Z,991.68
2019-02-10T11:55:15.921Z,991.59
2019-02-10T11:56:15.909Z,991.58
2019-02-10T11:57:15.920Z,991.52
2019-02-10T11:58:15.884Z,991.58
2019-02-10T11:59:15.864Z,991.51
2019-02-10T12:00:15.865Z,991.52
2019-02-10T12:04:52.060Z,991.46
2019-02-10T12:05:51.986Z,991.37
2019-02-10T12:06:51.977Z,991.40
2019-02-10T12:07:51.978Z,991.37
2019-02-10T12:08:51.947Z,991.36
2019-02-10T12:09:51.991Z,991.31
2019-02-10T12:10:51.930Z,991.28
2019-02-10T12:11:51.915Z,991.24
2019-02-10T12:12:51.923Z,991.25
2019-02-10T12:13:51.901Z,991.21
2019-02-10T12:14:51.881Z,991.23
2019-02-10T12:15:51.874Z,991.21
2019-02-10T12:16:51.871Z,991.19
2019-02-10T12:17:51.865Z,991.13
2019-02-10T12:18:51.847Z,991.15
2019-02-10T12:19:51.837Z,991.04
2019-02-10T12:20:51.819Z,991.07
2019-02-10T12:21:51.813Z,991.04
2019-02-10T12:22:51.831Z,991.06
2019-02-10T12:23:51.795Z,991.01
2019-02-10T12:24:51.794Z,991.00
2019-02-10T12:25:51.771Z,990.95
2019-02-10T12:26:51.758Z,990.95
2019-02-10T12:27:51.755Z,990.87
2019-02-10T12:28:51.757Z,990.91
2019-02-10T12:29:51.741Z,990.87
2019-02-10T12:30:51.716Z,990.92
2019-02-10T12:31:51.697Z,990.79
2019-02-10T12:32:51.690Z,990.77